createdAt,value
2023-02-24T00:02:15.129Z,7.32
2023-02-24T00:04:44.088Z,6.65
2023-02-24T00:07:12.982Z,7.80
2023-02-24T00:09:40.655Z,7.60
2023-02-24T00:12:13.263Z,6.93
2023-02-24T00:14:44.801Z,7.32
2023-02-24T00:17:14.582Z,7.38
2023-02-24T00:19:42.860Z,7.40
2023-02-24T00:22:10.916Z,7.57
2023-02-24T00:24:38.640Z,7.63
2023-02-24T00:27:08.222Z,7.13
2023-02-24T00:29:39.880Z,7.72
2023-02-24T00:32:12.668Z,8.07
2023-02-24T00:34:41.423Z,7.45
2023-02-24T00:37:09.237Z,7.65
2023-02-24T00:39:44.405Z,6.97
2023-02-24T00:42:12.340Z,7.85
2023-02-24T00:44:45.410Z,6.60
2023-02-24T00:47:16.416Z,7.68
2023-02-24T00:49:44.706Z,6.95
2023-02-24T00:52:17.545Z,7.25
2023-02-24T00:54:48.598Z,7.93
2023-02-24T00:57:21.577Z,8.05
2023-02-24T00:59:51.814Z,7.65
2023-02-24T01:02:20.747Z,8.65
2023-02-24T01:04:51.411Z,7.90
2023-02-24T01:07:19.005Z,7.95
2023-02-24T01:09:50.582Z,7.53
2023-02-24T01:12:38.415Z,7.90
2023-02-24T01:15:11.386Z,7.10
2023-02-24T01:17:40.716Z,7.32
2023-02-24T01:20:16.715Z,7.35
2023-02-24T01:22:52.969Z,7.80
2023-02-24T01:25:20.914Z,7.68
2023-02-24T01:27:48.941Z,7.30
2023-02-24T01:30:18.241Z,7.28
2023-02-24T01:32:47.356Z,7.07
2023-02-24T01:35:15.645Z,6.60
2023-02-24T01:37:43.426Z,6.32
2023-02-24T01:40:25.293Z,8.02
2023-02-24T01:45:26.298Z,6.78
2023-02-24T01:48:03.155Z,6.22
2023-02-24T01:50:35.700Z,7.40
2023-02-24T01:53:07.427Z,6.80
2023-02-24T01:58:22.241Z,6.43
2023-02-24T02:00:51.580Z,6.55
2023-02-24T02:03:37.470Z,6.05
2023-02-24T02:06:09.609Z,6.07
2023-02-24T02:08:42.283Z,5.80
2023-02-24T02:11:14.970Z,6.60
2023-02-24T02:13:50.332Z,5.82
2023-02-24T02:16:37.218Z,6.03
2023-02-24T02:19:57.996Z,6.30
2023-02-24T02:22:51.836Z,5.75
2023-02-24T02:26:18.944Z,5.85
2023-02-24T02:29:08.644Z,5.10
2023-02-24T02:31:57.453Z,5.28
2023-02-24T02:35:18.989Z,4.90
2023-02-24T02:38:06.940Z,5.33
2023-02-24T02:40:45.749Z,4.60
2023-02-24T02:43:27.453Z,5.20
2023-02-24T02:46:17.546Z,5.70
2023-02-24T02:48:59.307Z,5.47
2023-02-24T02:54:31.122Z,5.45
2023-02-24T02:57:09.522Z,5.30
2023-02-24T02:59:49.372Z,6.00
2023-02-24T03:02:28.528Z,5.28
2023-02-24T03:05:02.387Z,4.78
2023-02-24T03:07:41.186Z,4.38
2023-02-24T03:10:22.234Z,4.68
2023-02-24T03:12:55.330Z,5.27
2023-02-24T03:15:30.333Z,5.35
2023-02-24T03:18:10.311Z,4.57
2023-02-24T03:20:51.753Z,4.93
2023-02-24T03:23:26.965Z,5.18
2023-02-24T03:26:16.808Z,5.30
2023-02-24T03:29:30.445Z,5.47
2023-02-24T03:32:07.083Z,5.15
2023-02-24T03:35:15.349Z,4.97
2023-02-24T03:37:47.209Z,4.72
2023-02-24T03:40:16.670Z,5.18
2023-02-24T03:42:52.683Z,5.28
2023-02-24T03:45:23.139Z,5.70
2023-02-24T03:47:54.050Z,5.65
2023-02-24T03:50:22.547Z,4.73
2023-02-24T03:53:31.097Z,6.43
2023-02-24T03:56:17.304Z,5.28
2023-02-24T03:59:02.962Z,5.97
2023-02-24T04:02:06.398Z,5.15
2023-02-24T04:05:12.582Z,5.43
2023-02-24T04:08:08.543Z,4.82
2023-02-24T04:10:59.895Z,5.35
2023-02-24T04:13:44.106Z,5.82
2023-02-24T04:16:40.085Z,6.13
2023-02-24T04:19:18.329Z,5.93
2023-02-24T04:21:49.717Z,6.43
2023-02-24T04:24:30.179Z,5.78
2023-02-24T04:27:06.534Z,6.78
2023-02-24T04:29:54.406Z,7.10
2023-02-24T04:32:28.612Z,7.22
2023-02-24T04:35:09.765Z,6.38
2023-02-24T04:37:40.386Z,6.85
2023-02-24T04:40:10.825Z,6.45
2023-02-24T04:42:49.218Z,6.30
2023-02-24T04:45:25.818Z,6.15
2023-02-24T04:47:58.043Z,6.10
2023-02-24T04:50:27.020Z,6.93
2023-02-24T04:53:01.954Z,7.47
2023-02-24T04:55:37.938Z,6.95
2023-02-24T04:58:10.227Z,5.88
2023-02-24T05:00:41.317Z,6.20
2023-02-24T05:03:12.296Z,5.60
2023-02-24T05:05:42.989Z,6.20
2023-02-24T05:08:11.476Z,5.80
2023-02-24T05:10:47.554Z,6.22
2023-02-24T05:13:21.794Z,5.50
2023-02-24T05:15:49.885Z,6.00
2023-02-24T05:18:18.947Z,5.50
2023-02-24T05:21:10.911Z,6.10
2023-02-24T05:26:17.603Z,5.30
2023-02-24T05:28:52.129Z,5.50
2023-02-24T05:31:26.276Z,5.78
2023-02-24T05:33:58.820Z,5.47
2023-02-24T05:36:31.909Z,5.18
2023-02-24T05:39:04.560Z,5.45
2023-02-24T05:41:35.772Z,5.00
2023-02-24T05:44:10.688Z,4.95
2023-02-24T05:46:44.512Z,5.30
2023-02-24T05:49:20.723Z,6.00
2023-02-24T05:51:55.588Z,5.50
2023-02-24T05:54:38.148Z,5.22
2023-02-24T05:57:12.803Z,5.13
2023-02-24T05:59:44.553Z,5.50
2023-02-24T06:02:16.659Z,5.32
2023-02-24T06:04:54.105Z,4.80
2023-02-24T06:07:28.522Z,5.35
2023-02-24T06:09:58.927Z,5.45
2023-02-24T06:12:34.206Z,4.90
2023-02-24T06:15:07.328Z,5.10
2023-02-24T06:17:35.394Z,5.38
2023-02-24T06:20:15.700Z,4.78
2023-02-24T06:22:43.475Z,4.80
2023-02-24T06:25:14.153Z,4.85
2023-02-24T06:27:43.130Z,5.22
2023-02-24T06:30:11.805Z,4.63
2023-02-24T06:32:39.921Z,4.90
2023-02-24T06:35:08.658Z,4.55
2023-02-24T06:37:36.296Z,4.18
2023-02-24T06:40:15.667Z,5.00
2023-02-24T06:42:55.315Z,5.20
2023-02-24T06:45:24.456Z,4.93
2023-02-24T06:47:52.402Z,4.60
2023-02-24T06:50:20.584Z,3.92
2023-02-24T06:52:49.975Z,4.80
2023-02-24T06:55:27.517Z,4.63
2023-02-24T06:58:04.791Z,3.92
2023-02-24T07:00:40.899Z,4.15
2023-02-24T07:03:16.892Z,4.10
2023-02-24T07:05:54.091Z,4.60
2023-02-24T07:08:25.114Z,4.28
2023-02-24T07:10:58.146Z,4.28
2023-02-24T07:13:30.898Z,4.43
2023-02-24T07:16:07.160Z,3.70
2023-02-24T07:18:41.723Z,4.05
2023-02-24T07:21:11.590Z,3.83
2023-02-24T07:23:41.857Z,3.78
2023-02-24T07:26:18.729Z,4.07
2023-02-24T07:28:48.071Z,3.65
2023-02-24T07:31:23.008Z,3.47
2023-02-24T07:33:57.300Z,3.47
2023-02-24T07:36:29.932Z,3.30
2023-02-24T07:38:59.478Z,4.32
2023-02-24T07:41:29.463Z,3.65
2023-02-24T07:43:59.729Z,3.35
2023-02-24T07:46:29.376Z,3.63
2023-02-24T07:48:59.846Z,3.67
2023-02-24T07:51:29.669Z,3.70
2023-02-24T07:54:01.348Z,3.72
2023-02-24T07:59:03.492Z,3.63
2023-02-24T08:01:39.016Z,3.63
2023-02-24T08:04:12.494Z,3.03
2023-02-24T08:06:46.177Z,3.28
2023-02-24T08:09:19.468Z,3.08
2023-02-24T08:11:53.627Z,2.70
2023-02-24T08:14:32.714Z,3.15
2023-02-24T08:17:05.440Z,2.70
2023-02-24T08:19:39.502Z,3.45
2023-02-24T08:22:20.502Z,2.88
2023-02-24T08:25:00.832Z,2.50
2023-02-24T08:27:30.389Z,3.03
2023-02-24T08:30:01.631Z,2.80
2023-02-24T08:32:46.932Z,3.10
2023-02-24T08:35:18.022Z,3.20
2023-02-24T08:37:52.008Z,2.70
2023-02-24T08:40:32.636Z,2.75
2023-02-24T08:43:29.431Z,2.70
2023-02-24T08:46:26.165Z,3.00
2023-02-24T08:49:02.733Z,2.95
2023-02-24T08:51:35.691Z,3.08
2023-02-24T08:54:11.016Z,2.88
2023-02-24T08:56:43.434Z,3.00
2023-02-24T08:59:29.208Z,3.20
2023-02-24T09:02:17.875Z,3.28
2023-02-24T09:04:49.612Z,3.20
2023-02-24T09:10:17.875Z,3.42
2023-02-24T09:12:45.839Z,3.38
2023-02-24T09:15:15.912Z,3.42
2023-02-24T09:17:45.478Z,3.10
2023-02-24T09:20:39.344Z,3.25
2023-02-24T09:23:08.574Z,2.35
2023-02-24T09:25:49.452Z,3.05
2023-02-24T09:28:20.100Z,3.17
2023-02-24T09:30:53.789Z,4.05
2023-02-24T09:33:25.930Z,4.18
2023-02-24T09:36:10.416Z,4.13
2023-02-24T09:38:59.441Z,3.60
2023-02-24T09:42:05.835Z,2.47
2023-02-24T09:44:44.930Z,3.05
2023-02-24T09:47:57.188Z,2.85
2023-02-24T09:51:03.419Z,2.70
2023-02-24T09:53:56.978Z,3.10
2023-02-24T09:57:16.987Z,3.67
2023-02-24T10:00:41.705Z,2.95
2023-02-24T10:03:48.100Z,4.05
2023-02-24T10:07:14.059Z,3.03
2023-02-24T10:10:20.006Z,2.97
2023-02-24T10:13:30.691Z,3.65
2023-02-24T10:16:24.505Z,3.55
2023-02-24T10:19:28.632Z,3.75
2023-02-24T10:22:50.588Z,4.05
2023-02-24T10:25:55.413Z,3.28
2023-02-24T10:28:57.564Z,3.45
2023-02-24T10:34:35.815Z,3.10
2023-02-24T10:37:27.535Z,3.20
2023-02-24T10:40:26.611Z,3.60
2023-02-24T10:43:30.153Z,3.90
2023-02-24T10:46:41.438Z,3.33
2023-02-24T10:49:29.244Z,4.60
2023-02-24T10:52:33.460Z,3.60
2023-02-24T10:55:44.572Z,3.90
2023-02-24T10:58:44.507Z,4.53
2023-02-24T11:01:54.742Z,4.15
2023-02-24T11:04:54.089Z,3.95
2023-02-24T11:07:52.490Z,4.25
2023-02-24T11:10:53.429Z,4.03
2023-02-24T11:14:11.603Z,4.60
2023-02-24T11:17:12.618Z,4.35
2023-02-24T11:19:49.012Z,4.50
2023-02-24T11:22:24.367Z,4.72
2023-02-24T11:24:53.235Z,3.75
2023-02-24T11:27:26.396Z,3.80
2023-02-24T11:30:38.033Z,4.43
2023-02-24T11:33:17.614Z,4.07
2023-02-24T11:36:14.425Z,4.13
2023-02-24T11:39:17.187Z,4.68
2023-02-24T11:41:55.576Z,4.53
2023-02-24T11:45:07.284Z,4.35
2023-02-24T11:47:46.492Z,4.20
2023-02-24T11:50:45.178Z,4.07
2023-02-24T11:53:41.263Z,4.57
2023-02-24T11:56:23.699Z,4.70
2023-02-24T11:59:02.599Z,5.10
2023-02-24T12:02:08.677Z,5.10
2023-02-24T12:04:46.331Z,4.95
2023-02-24T12:07:32.568Z,5.88
2023-02-24T12:10:17.408Z,5.45
2023-02-24T12:13:12.177Z,5.32
2023-02-24T12:16:07.810Z,5.95
2023-02-24T12:18:47.037Z,5.50
2023-02-24T12:21:39.835Z,5.68
2023-02-24T12:24:13.790Z,5.70
2023-02-24T12:27:39.441Z,6.30
2023-02-24T12:30:50.909Z,6.03
2023-02-24T12:33:37.496Z,6.10
2023-02-24T12:36:55.547Z,6.20
2023-02-24T12:39:45.960Z,6.47
2023-02-24T12:42:28.923Z,6.50
2023-02-24T12:45:12.186Z,6.78
2023-02-24T12:48:09.995Z,6.78
2023-02-24T12:51:05.631Z,6.68
2023-02-24T12:53:51.730Z,6.90
2023-02-24T12:56:34.212Z,7.47
2023-02-24T12:59:06.631Z,7.68
2023-02-24T13:01:59.800Z,7.05
2023-02-24T13:04:44.598Z,6.82
2023-02-24T13:07:41.207Z,6.50
2023-02-24T13:10:49.596Z,6.43
2023-02-24T13:13:40.873Z,6.65
2023-02-24T13:16:12.460Z,5.97
2023-02-24T13:18:40.383Z,6.63
2023-02-24T13:21:26.211Z,6.85
2023-02-24T13:24:01.141Z,6.85
2023-02-24T13:26:32.801Z,7.03
2023-02-24T13:29:13.887Z,6.90
2023-02-24T13:31:57.561Z,5.93
2023-02-24T13:34:43.219Z,6.13
2023-02-24T13:37:12.960Z,6.78
2023-02-24T13:39:47.203Z,6.05
2023-02-24T13:42:33.686Z,6.55
2023-02-24T13:45:09.968Z,6.97
2023-02-24T13:48:13.926Z,7.10
2023-02-24T13:51:08.553Z,7.30
2023-02-24T13:54:33.051Z,6.03
2023-02-24T13:57:35.875Z,6.43
2023-02-24T14:00:22.019Z,6.97
2023-02-24T14:02:53.297Z,5.75
2023-02-24T14:05:32.159Z,5.18
2023-02-24T14:08:02.646Z,5.85
2023-02-24T14:10:34.741Z,5.15
2023-02-24T14:13:19.874Z,5.47
2023-02-24T14:15:48.356Z,5.55
2023-02-24T14:18:24.484Z,4.93
2023-02-24T14:20:54.227Z,5.70
2023-02-24T14:23:32.452Z,5.10
2023-02-24T14:26:12.329Z,4.40
2023-02-24T14:28:42.008Z,4.97
2023-02-24T14:31:14.030Z,4.40
2023-02-24T14:33:45.454Z,4.85
2023-02-24T14:36:27.646Z,4.78
2023-02-24T14:39:03.108Z,5.03
2023-02-24T14:41:30.731Z,4.82
2023-02-24T14:44:04.798Z,5.57
2023-02-24T14:46:32.508Z,5.15
2023-02-24T14:49:00.164Z,5.43
2023-02-24T14:51:36.172Z,5.72
2023-02-24T14:54:11.841Z,6.57
2023-02-24T14:56:41.448Z,6.97
2023-02-24T14:59:28.403Z,6.22
2023-02-24T15:01:57.774Z,7.20
2023-02-24T15:04:43.654Z,7.47
2023-02-24T15:07:26.984Z,6.63
2023-02-24T15:09:55.785Z,6.10
2023-02-24T15:12:37.920Z,5.07
2023-02-24T15:15:19.726Z,4.38
2023-02-24T15:17:55.269Z,2.58
2023-02-24T15:20:32.832Z,2.47
2023-02-24T15:23:31.173Z,1.90
2023-02-24T15:25:59.738Z,2.25
2023-02-24T15:28:37.458Z,1.95
2023-02-24T15:31:22.205Z,2.72
2023-02-24T15:34:01.126Z,2.33
2023-02-24T15:36:35.076Z,2.33
2023-02-24T15:39:23.184Z,2.47
2023-02-24T15:41:52.611Z,2.67
2023-02-24T15:44:34.591Z,2.33
2023-02-24T15:47:26.342Z,2.60
2023-02-24T15:49:54.285Z,2.17
2023-02-24T15:52:29.836Z,2.47
2023-02-24T15:55:00.507Z,3.53
2023-02-24T15:57:31.544Z,3.47
2023-02-24T16:00:00.500Z,2.33
2023-02-24T16:02:30.237Z,2.72
2023-02-24T16:04:58.580Z,2.45
2023-02-24T16:07:37.055Z,3.25
2023-02-24T16:10:09.850Z,2.85
2023-02-24T16:13:00.301Z,2.63
2023-02-24T16:15:34.267Z,2.60
2023-02-24T16:18:06.760Z,3.20
2023-02-24T16:20:39.831Z,3.35
2023-02-24T16:23:10.151Z,3.00
2023-02-24T16:25:45.277Z,3.40
2023-02-24T16:28:20.255Z,3.13
2023-02-24T16:30:51.255Z,3.85
2023-02-24T16:33:24.018Z,3.10
2023-02-24T16:35:55.566Z,2.90
2023-02-24T16:38:28.281Z,2.65
2023-02-24T16:40:56.586Z,2.70
2023-02-24T16:43:24.876Z,2.03
2023-02-24T16:46:00.926Z,1.80
2023-02-24T16:48:30.520Z,2.42
2023-02-24T16:50:58.436Z,2.17
2023-02-24T16:53:26.360Z,2.15
2023-02-24T16:55:54.051Z,2.13
2023-02-24T16:58:23.673Z,1.73
2023-02-24T17:00:57.318Z,1.80
2023-02-24T17:03:31.416Z,2.08
2023-02-24T17:06:00.349Z,2.42
2023-02-24T17:08:28.315Z,2.38
2023-02-24T17:10:56.339Z,1.80
2023-02-24T17:13:24.090Z,2.17
2023-02-24T17:15:57.367Z,1.77
2023-02-24T17:18:26.355Z,2.15
2023-02-24T17:20:54.319Z,2.15
2023-02-24T17:23:23.168Z,2.28
2023-02-24T17:25:56.378Z,2.13
2023-02-24T17:28:24.790Z,1.83
2023-02-24T17:30:52.643Z,2.28
2023-02-24T17:33:20.586Z,2.22
2023-02-24T17:35:48.629Z,2.00
2023-02-24T17:38:20.562Z,2.00
2023-02-24T17:40:48.430Z,2.65
2023-02-24T17:43:16.405Z,1.90
2023-02-24T17:45:46.798Z,1.80
2023-02-24T17:48:15.856Z,2.00
2023-02-24T17:50:48.606Z,2.00
2023-02-24T17:53:16.192Z,2.03
2023-02-24T17:56:01.087Z,2.03
2023-02-24T17:58:29.414Z,1.60
2023-02-24T18:00:57.107Z,1.90
2023-02-24T18:03:24.857Z,1.92
2023-02-24T18:06:08.548Z,1.98
2023-02-24T18:08:38.595Z,1.73
2023-02-24T18:11:09.935Z,2.00
2023-02-24T18:13:37.624Z,1.90
2023-02-24T18:16:14.026Z,1.75
2023-02-24T18:18:42.146Z,1.70
2023-02-24T18:21:09.978Z,2.00
2023-02-24T18:23:40.688Z,2.45
2023-02-24T18:26:11.571Z,2.35
2023-02-24T18:28:39.814Z,2.08
2023-02-24T18:31:20.856Z,2.67
2023-02-24T18:33:49.861Z,2.67
2023-02-24T18:36:18.502Z,2.10
2023-02-24T18:38:46.150Z,2.38
2023-02-24T18:41:18.672Z,2.10
2023-02-24T18:43:57.334Z,2.17
2023-02-24T18:46:26.533Z,2.50
2023-02-24T18:48:56.551Z,2.47
2023-02-24T18:51:29.287Z,2.15
2023-02-24T18:54:00.688Z,2.03
2023-02-24T18:56:31.111Z,2.30
2023-02-24T18:59:01.294Z,3.30
2023-02-24T19:01:36.560Z,2.42
2023-02-24T19:04:07.328Z,2.72
2023-02-24T19:06:36.497Z,2.92
2023-02-24T19:09:09.916Z,2.33
2023-02-24T19:11:40.054Z,2.72
2023-02-24T19:14:10.986Z,2.38
2023-02-24T19:16:40.320Z,2.35
2023-02-24T19:19:08.407Z,2.58
2023-02-24T19:21:36.314Z,2.15
2023-02-24T19:24:08.413Z,2.55
2023-02-24T19:26:36.161Z,2.80
2023-02-24T19:29:04.145Z,3.03
2023-02-24T19:31:33.793Z,2.28
2023-02-24T19:34:07.946Z,2.63
2023-02-24T19:36:37.326Z,2.75
2023-02-24T19:39:10.190Z,3.17
2023-02-24T19:41:38.357Z,3.55
2023-02-24T19:44:06.110Z,3.78
2023-02-24T19:46:34.316Z,3.33
2023-02-24T19:49:02.975Z,2.92
2023-02-24T19:51:32.431Z,3.92
2023-02-24T19:54:03.465Z,3.60
2023-02-24T19:56:33.900Z,3.42
2023-02-24T19:59:03.715Z,3.75
2023-02-24T20:01:32.232Z,3.22
2023-02-24T20:04:03.647Z,3.22
2023-02-24T20:06:38.909Z,3.03
2023-02-24T20:09:09.662Z,3.63
2023-02-24T20:11:39.288Z,3.40
2023-02-24T20:14:09.300Z,3.30
2023-02-24T20:16:39.342Z,3.47
2023-02-24T20:19:09.107Z,3.95
2023-02-24T20:21:38.488Z,3.08
2023-02-24T20:24:13.401Z,4.03
2023-02-24T20:26:47.073Z,4.90
2023-02-24T20:29:16.988Z,4.25
2023-02-24T20:31:46.304Z,4.32
2023-02-24T20:34:16.634Z,3.78
2023-02-24T20:36:44.187Z,4.20
2023-02-24T20:39:12.701Z,4.10
2023-02-24T20:41:40.958Z,4.25
2023-02-24T20:44:09.593Z,4.70
2023-02-24T20:46:37.604Z,4.65
2023-02-24T20:49:08.875Z,4.63
2023-02-24T20:51:38.194Z,4.50
2023-02-24T20:54:07.907Z,4.60
2023-02-24T20:56:38.775Z,4.90
2023-02-24T20:59:14.645Z,4.50
2023-02-24T21:01:46.481Z,4.80
2023-02-24T21:04:16.958Z,4.88
2023-02-24T21:06:46.553Z,4.57
2023-02-24T21:09:16.120Z,4.75
2023-02-24T21:11:44.119Z,4.30
2023-02-24T21:14:16.753Z,5.07
2023-02-24T21:16:46.239Z,4.93
2023-02-24T21:19:14.239Z,4.93
2023-02-24T21:21:41.917Z,6.40
2023-02-24T21:24:09.770Z,5.47
2023-02-24T21:26:37.791Z,4.95
2023-02-24T21:29:05.586Z,4.82
2023-02-24T21:31:33.734Z,4.97
2023-02-24T21:34:04.702Z,5.03
2023-02-24T21:36:32.463Z,5.00
2023-02-24T21:39:01.021Z,4.82
2023-02-24T21:41:31.735Z,4.72
2023-02-24T21:44:07.314Z,4.90
2023-02-24T21:46:35.071Z,5.35
2023-02-24T21:49:02.952Z,4.57
2023-02-24T21:51:30.633Z,5.00
2023-02-24T21:53:58.558Z,5.03
2023-02-24T21:56:30.339Z,4.22
2023-02-24T21:59:04.379Z,4.20
2023-02-24T22:01:43.348Z,4.82
2023-02-24T22:04:18.120Z,5.07
2023-02-24T22:06:45.809Z,4.45
2023-02-24T22:09:19.296Z,4.15
2023-02-24T22:11:49.517Z,4.60
2023-02-24T22:14:17.865Z,4.55
2023-02-24T22:16:45.564Z,4.70
2023-02-24T22:19:14.302Z,4.38
2023-02-24T22:21:42.541Z,3.88
2023-02-24T22:24:16.009Z,3.47
2023-02-24T22:26:44.278Z,4.25
2023-02-24T22:29:11.861Z,4.40
2023-02-24T22:31:43.425Z,4.00
2023-02-24T22:34:11.234Z,3.97
2023-02-24T22:36:38.724Z,3.38
2023-02-24T22:39:09.276Z,4.13
2023-02-24T22:41:38.460Z,3.30
2023-02-24T22:44:06.832Z,3.33
2023-02-24T22:46:37.811Z,2.80
2023-02-24T22:49:06.363Z,3.87
2023-02-24T22:51:34.164Z,3.10
2023-02-24T22:54:02.355Z,3.13
2023-02-24T22:56:30.874Z,2.90
2023-02-24T22:59:00.625Z,3.08
2023-02-24T23:01:33.484Z,3.55
2023-02-24T23:04:04.597Z,3.20
2023-02-24T23:06:34.750Z,2.80
2023-02-24T23:09:03.931Z,2.92
2023-02-24T23:11:36.107Z,3.10
2023-02-24T23:14:09.926Z,3.50
2023-02-24T23:16:39.012Z,3.40
2023-02-24T23:19:16.092Z,3.40
2023-02-24T23:21:51.068Z,3.33
2023-02-24T23:24:21.074Z,3.03
2023-02-24T23:26:57.569Z,3.35
2023-02-24T23:29:27.152Z,3.22
2023-02-24T23:34:25.757Z,2.55
2023-02-24T23:36:53.283Z,2.35
2023-02-24T23:39:23.686Z,3.15
2023-02-24T23:41:56.826Z,3.10
2023-02-24T23:44:25.253Z,2.72
2023-02-24T23:46:52.830Z,2.97
2023-02-24T23:49:20.496Z,2.67
2023-02-24T23:51:49.084Z,3.13
2023-02-24T23:54:18.310Z,2.58
2023-02-24T23:56:46.624Z,3.00
2023-02-24T23:59:14.570Z,2.97
